createdAt,value
2018-07-04T00:00:03.783Z,1007.36
2018-07-04T00:01:03.768Z,1007.36
2018-07-04T00:02:03.753Z,1007.34
2018-07-04T00:03:03.748Z,1007.36
2018-07-04T00:04:03.735Z,1007.33
2018-07-04T00:05:03.733Z,1007.39
2018-07-04T00:06:03.710Z,1007.42
2018-07-04T00:07:03.699Z,1007.37
2018-07-04T00:08:03.680Z,1007.36
2018-07-04T00:09:03.670Z,1007.35
2018-07-04T00:10:03.651Z,1007.34
2018-07-04T00:11:03.651Z,1007.34
2018-07-04T00:12:03.628Z,1007.29
2018-07-04T00:13:03.628Z,1007.33
2018-07-04T00:14:03.604Z,1007.32
2018-07-04T00:15:03.596Z,1007.32
2018-07-04T00:16:03.580Z,1007.28
2018-07-04T00:17:03.563Z,1007.29
2018-07-04T00:18:03.564Z,1007.29
2018-07-04T00:19:03.541Z,1007.28
2018-07-04T00:20:03.547Z,1007.27
2018-07-04T00:21:03.517Z,1007.28
2018-07-04T00:22:03.498Z,1007.28
2018-07-04T00:23:03.492Z,1007.27
2018-07-04T00:24:03.481Z,1007.31
2018-07-04T00:25:03.466Z,1007.25
2018-07-04T00:26:03.454Z,1007.27
2018-07-04T00:27:03.435Z,1007.23
2018-07-04T00:28:03.422Z,1007.21
2018-07-04T00:29:03.422Z,1007.20
2018-07-04T00:30:03.402Z,1007.23
2018-07-04T00:31:03.382Z,1007.21
2018-07-04T00:32:03.376Z,1007.19
2018-07-04T00:33:03.363Z,1007.22
2018-07-04T00:34:03.348Z,1007.21
2018-07-04T00:35:03.331Z,1007.22
2018-07-04T00:36:03.315Z,1007.23
2018-07-04T00:37:03.306Z,1007.23
2018-07-04T00:38:03.298Z,1007.25
2018-07-04T00:39:03.282Z,1007.25
2018-07-04T00:40:03.265Z,1007.24
2018-07-04T00:41:03.260Z,1007.23
2018-07-04T00:42:03.256Z,1007.26
2018-07-04T00:43:03.226Z,1007.26
2018-07-04T00:44:03.213Z,1007.28
2018-07-04T00:45:03.200Z,1007.27
2018-07-04T00:46:03.195Z,1007.23
2018-07-04T00:47:03.175Z,1007.20
2018-07-04T00:48:03.161Z,1007.21
2018-07-04T00:49:03.144Z,1007.19
2018-07-04T00:50:03.137Z,1007.19
2018-07-04T00:51:03.130Z,1007.18
2018-07-04T00:52:03.114Z,1007.19
2018-07-04T00:53:03.092Z,1007.21
2018-07-04T00:54:03.079Z,1007.22
2018-07-04T00:55:03.079Z,1007.19
2018-07-04T00:56:03.066Z,1007.15
2018-07-04T00:57:03.046Z,1007.19
2018-07-04T00:58:03.037Z,1007.18
2018-07-04T00:59:03.021Z,1007.17
2018-07-04T01:00:03.014Z,1007.13
2018-07-04T01:01:02.990Z,1007.16
2018-07-04T01:02:02.981Z,1007.20
2018-07-04T01:03:02.963Z,1007.18
2018-07-04T01:04:02.953Z,1007.19
2018-07-04T01:05:02.945Z,1007.20
2018-07-04T01:06:02.925Z,1007.23
2018-07-04T01:07:02.914Z,1007.25
2018-07-04T01:08:02.904Z,1007.26
2018-07-04T01:09:02.888Z,1007.22
2018-07-04T01:10:02.868Z,1007.23
2018-07-04T01:11:02.860Z,1007.23
2018-07-04T01:12:02.846Z,1007.17
2018-07-04T01:13:02.832Z,1007.19
2018-07-04T01:14:02.825Z,1007.15
2018-07-04T01:15:02.804Z,1007.16
2018-07-04T01:16:02.797Z,1007.15
2018-07-04T01:17:02.784Z,1007.14
2018-07-04T01:18:02.777Z,1007.15
2018-07-04T01:19:02.751Z,1007.13
2018-07-04T01:20:02.732Z,1007.08
2018-07-04T01:21:02.734Z,1007.04
2018-07-04T01:22:02.710Z,1007.06
2018-07-04T01:23:02.697Z,1007.05
2018-07-04T01:24:02.688Z,1007.05
2018-07-04T01:25:02.674Z,1007.01
2018-07-04T01:26:02.660Z,1007.02
2018-07-04T01:27:02.649Z,1006.96
2018-07-04T01:28:02.630Z,1006.98
2018-07-04T01:29:02.622Z,1006.97
2018-07-04T01:30:02.608Z,1006.99
2018-07-04T01:31:02.614Z,1006.96
2018-07-04T01:32:02.578Z,1006.97
2018-07-04T01:33:02.567Z,1006.90
2018-07-04T01:34:02.550Z,1006.93
2018-07-04T01:35:02.539Z,1006.97
2018-07-04T01:36:02.525Z,1006.98
2018-07-04T01:37:02.512Z,1006.93
2018-07-04T01:38:02.502Z,1006.96
2018-07-04T01:39:02.488Z,1006.96
2018-07-04T01:40:02.469Z,1006.89
2018-07-04T01:41:02.459Z,1006.93
2018-07-04T01:42:02.442Z,1006.93
2018-07-04T01:43:02.429Z,1006.90
2018-07-04T01:44:02.423Z,1006.89
2018-07-04T01:45:02.405Z,1006.90
2018-07-04T01:46:02.395Z,1006.87
2018-07-04T01:47:02.390Z,1006.87
2018-07-04T01:48:02.363Z,1006.83
2018-07-04T01:49:02.349Z,1006.85
2018-07-04T01:50:02.332Z,1006.81
2018-07-04T01:51:02.324Z,1006.82
2018-07-04T01:52:02.306Z,1006.81
2018-07-04T01:53:02.292Z,1006.80
2018-07-04T01:54:02.283Z,1006.78
2018-07-04T01:55:02.262Z,1006.74
2018-07-04T01:56:02.267Z,1006.71
2018-07-04T01:57:02.242Z,1006.71
2018-07-04T01:58:02.236Z,1006.70
2018-07-04T01:59:02.219Z,1006.71
2018-07-04T02:00:02.201Z,1006.72
2018-07-04T02:01:02.186Z,1006.74
2018-07-04T02:02:02.174Z,1006.72
2018-07-04T02:03:02.167Z,1006.74
2018-07-04T02:04:02.149Z,1006.77
2018-07-04T02:05:02.135Z,1006.71
2018-07-04T02:06:02.118Z,1006.77
2018-07-04T02:07:02.107Z,1006.75
2018-07-04T02:08:02.093Z,1006.74
2018-07-04T02:09:02.078Z,1006.72
2018-07-04T02:10:02.073Z,1006.71
2018-07-04T02:11:02.047Z,1006.70
2018-07-04T02:12:02.039Z,1006.68
2018-07-04T02:13:02.021Z,1006.68
2018-07-04T02:14:02.007Z,1006.69
2018-07-04T02:15:01.990Z,1006.66
2018-07-04T02:16:01.986Z,1006.69
2018-07-04T02:17:01.995Z,1006.70
2018-07-04T02:18:01.952Z,1006.70
2018-07-04T02:19:01.943Z,1006.71
2018-07-04T02:20:01.931Z,1006.72
2018-07-04T02:21:01.917Z,1006.73
2018-07-04T02:22:01.898Z,1006.77
2018-07-04T02:23:01.897Z,1006.72
2018-07-04T02:24:01.870Z,1006.71
2018-07-04T02:25:01.862Z,1006.72
2018-07-04T02:26:01.852Z,1006.71
2018-07-04T02:27:01.829Z,1006.69
2018-07-04T02:28:01.813Z,1006.69
2018-07-04T02:29:01.801Z,1006.71
2018-07-04T02:30:01.790Z,1006.69
2018-07-04T02:31:01.781Z,1006.66
2018-07-04T02:32:01.763Z,1006.68
2018-07-04T02:33:01.746Z,1006.68
2018-07-04T02:34:01.737Z,1006.68
2018-07-04T02:35:01.719Z,1006.69
2018-07-04T02:36:01.709Z,1006.65
2018-07-04T02:37:01.693Z,1006.61
2018-07-04T02:38:01.696Z,1006.62
2018-07-04T02:39:01.666Z,1006.56
2018-07-04T02:40:01.645Z,1006.53
2018-07-04T02:41:01.648Z,1006.56
2018-07-04T02:42:01.635Z,1006.56
2018-07-04T02:43:01.609Z,1006.56
2018-07-04T02:44:01.595Z,1006.57
2018-07-04T02:45:01.713Z,1006.58
2018-07-04T02:46:01.573Z,1006.62
2018-07-04T02:47:01.550Z,1006.60
2018-07-04T02:48:01.537Z,1006.60
2018-07-04T02:49:01.529Z,1006.60
2018-07-04T02:50:01.514Z,1006.57
2018-07-04T02:51:01.504Z,1006.59
2018-07-04T02:52:01.501Z,1006.56
2018-07-04T02:53:01.467Z,1006.54
2018-07-04T02:54:01.458Z,1006.59
2018-07-04T02:55:01.444Z,1006.59
2018-07-04T02:56:01.432Z,1006.57
2018-07-04T02:57:01.415Z,1006.56
2018-07-04T02:58:01.403Z,1006.53
2018-07-04T02:59:01.385Z,1006.57
2018-07-04T03:00:01.381Z,1006.53
2018-07-04T03:01:01.362Z,1006.48
2018-07-04T03:02:01.341Z,1006.46
2018-07-04T03:03:01.333Z,1006.41
2018-07-04T03:04:01.319Z,1006.45
2018-07-04T03:05:01.302Z,1006.46
2018-07-04T03:06:01.294Z,1006.44
2018-07-04T03:07:01.281Z,1006.49
2018-07-04T03:08:01.259Z,1006.46
2018-07-04T03:09:01.239Z,1006.46
2018-07-04T03:10:01.233Z,1006.47
2018-07-04T03:11:01.220Z,1006.48
2018-07-04T03:12:01.203Z,1006.44
2018-07-04T03:13:01.186Z,1006.45
2018-07-04T03:14:01.171Z,1006.44
2018-07-04T03:15:01.158Z,1006.43
2018-07-04T03:16:01.151Z,1006.46
2018-07-04T03:17:01.153Z,1006.44
2018-07-04T03:18:01.116Z,1006.44
2018-07-04T03:19:01.106Z,1006.39
2018-07-04T03:20:01.091Z,1006.44
2018-07-04T03:21:01.078Z,1006.40
2018-07-04T03:22:01.065Z,1006.43
2018-07-04T03:23:01.046Z,1006.42
2018-07-04T03:24:01.034Z,1006.46
2018-07-04T03:25:01.037Z,1006.45
2018-07-04T03:26:01.005Z,1006.44
2018-07-04T03:27:00.992Z,1006.42
2018-07-04T03:28:00.979Z,1006.44
2018-07-04T03:29:00.965Z,1006.47
2018-07-04T03:30:00.950Z,1006.47
2018-07-04T03:31:00.939Z,1006.48
2018-07-04T03:32:00.929Z,1006.45
2018-07-04T03:33:00.952Z,1006.42
2018-07-04T03:34:00.925Z,1006.48
2018-07-04T03:35:00.938Z,1006.49
2018-07-04T03:36:00.886Z,1006.46
2018-07-04T03:37:00.865Z,1006.50
2018-07-04T03:38:00.831Z,1006.45
2018-07-04T03:39:00.882Z,1006.42
2018-07-04T03:40:00.812Z,1006.44
2018-07-04T03:41:00.841Z,1006.45
2018-07-04T03:42:00.776Z,1006.41
2018-07-04T03:43:00.760Z,1006.43
2018-07-04T03:44:00.748Z,1006.39
2018-07-04T03:45:00.737Z,1006.42
2018-07-04T03:46:00.726Z,1006.40
2018-07-04T03:47:00.703Z,1006.37
2018-07-04T03:48:00.690Z,1006.34
2018-07-04T03:49:00.686Z,1006.33
2018-07-04T03:50:00.663Z,1006.39
2018-07-04T03:51:00.653Z,1006.35
2018-07-04T03:52:00.640Z,1006.34
2018-07-04T03:53:00.625Z,1006.39
2018-07-04T03:54:00.612Z,1006.41
2018-07-04T03:55:00.619Z,1006.42
2018-07-04T03:56:00.591Z,1006.45
2018-07-04T03:57:00.563Z,1006.45
2018-07-04T03:58:00.569Z,1006.46
2018-07-04T03:59:00.549Z,1006.43
2018-07-04T04:00:00.528Z,1006.43
2018-07-04T04:01:00.509Z,1006.47
2018-07-04T04:02:00.517Z,1006.45
2018-07-04T04:03:00.488Z,1006.47
2018-07-04T04:04:00.486Z,1006.46
2018-07-04T04:05:00.464Z,1006.45
2018-07-04T04:06:00.439Z,1006.45
2018-07-04T04:07:00.431Z,1006.51
2018-07-04T04:08:00.416Z,1006.54
2018-07-04T04:09:00.414Z,1006.58
2018-07-04T04:10:00.392Z,1006.53
2018-07-04T04:11:00.377Z,1006.58
2018-07-04T04:12:00.349Z,1006.57
2018-07-04T04:13:00.341Z,1006.53
2018-07-04T04:14:00.331Z,1006.48
2018-07-04T04:15:00.315Z,1006.48
2018-07-04T04:16:00.303Z,1006.44
2018-07-04T04:17:00.293Z,1006.39
2018-07-04T04:18:00.270Z,1006.34
2018-07-04T04:19:00.261Z,1006.30
2018-07-04T04:20:00.242Z,1006.31
2018-07-04T04:21:00.229Z,1006.33
2018-07-04T04:22:00.217Z,1006.34
2018-07-04T04:23:00.205Z,1006.32
2018-07-04T04:24:00.199Z,1006.32
2018-07-04T04:25:00.179Z,1006.35
2018-07-04T04:26:00.161Z,1006.40
2018-07-04T04:27:00.189Z,1006.42
2018-07-04T04:28:00.133Z,1006.43
2018-07-04T04:29:00.282Z,1006.45
2018-07-04T04:30:00.117Z,1006.45
2018-07-04T04:31:00.096Z,1006.43
2018-07-04T04:32:00.080Z,1006.41
2018-07-04T04:33:00.111Z,1006.45
2018-07-04T04:34:00.048Z,1006.44
2018-07-04T04:35:00.035Z,1006.44
2018-07-04T04:36:00.026Z,1006.46
2018-07-04T04:37:00.011Z,1006.43
2018-07-04T04:37:59.996Z,1006.41
2018-07-04T04:38:59.979Z,1006.41
2018-07-04T04:39:59.967Z,1006.40
2018-07-04T04:40:59.949Z,1006.44
2018-07-04T04:41:59.935Z,1006.45
2018-07-04T04:42:59.928Z,1006.47
2018-07-04T04:43:59.909Z,1006.49
2018-07-04T04:44:59.907Z,1006.47
2018-07-04T04:45:59.889Z,1006.47
2018-07-04T04:46:59.866Z,1006.47
2018-07-04T04:47:59.870Z,1006.47
2018-07-04T04:48:59.884Z,1006.42
2018-07-04T04:49:59.853Z,1006.42
2018-07-04T04:50:59.836Z,1006.41
2018-07-04T04:51:59.821Z,1006.39
2018-07-04T04:52:59.799Z,1006.36
2018-07-04T04:53:59.774Z,1006.33
2018-07-04T04:54:59.774Z,1006.35
2018-07-04T04:55:59.762Z,1006.33
2018-07-04T04:56:59.745Z,1006.36
2018-07-04T04:57:59.744Z,1006.31
2018-07-04T04:58:59.765Z,1006.32
2018-07-04T04:59:59.770Z,1006.34
2018-07-04T05:00:59.712Z,1006.30
2018-07-04T05:01:59.684Z,1006.31
2018-07-04T05:02:59.664Z,1006.37
2018-07-04T05:03:59.671Z,1006.33
2018-07-04T05:04:59.649Z,1006.33
2018-07-04T05:05:59.636Z,1006.37
2018-07-04T05:06:59.617Z,1006.35
2018-07-04T05:07:59.613Z,1006.35
2018-07-04T05:08:59.576Z,1006.37
2018-07-04T05:09:59.570Z,1006.37
2018-07-04T05:10:59.558Z,1006.38
2018-07-04T05:11:59.558Z,1006.35
2018-07-04T05:12:59.526Z,1006.34
2018-07-04T05:13:59.520Z,1006.30
2018-07-04T05:14:59.520Z,1006.33
2018-07-04T05:15:59.491Z,1006.31
2018-07-04T05:16:59.488Z,1006.33
2018-07-04T05:17:59.464Z,1006.30
2018-07-04T05:18:59.474Z,1006.32
2018-07-04T05:19:59.460Z,1006.29
2018-07-04T05:20:59.440Z,1006.28
2018-07-04T05:21:59.459Z,1006.28
2018-07-04T05:22:59.431Z,1006.26
2018-07-04T05:23:59.379Z,1006.26
2018-07-04T05:24:59.367Z,1006.21
2018-07-04T05:25:59.358Z,1006.24
2018-07-04T05:26:59.343Z,1006.24
2018-07-04T05:27:59.345Z,1006.24
2018-07-04T05:28:59.358Z,1006.30
2018-07-04T05:29:59.323Z,1006.27
2018-07-04T05:30:59.296Z,1006.34
2018-07-04T05:31:59.272Z,1006.35
2018-07-04T05:32:59.266Z,1006.35
2018-07-04T05:33:59.246Z,1006.34
2018-07-04T05:34:59.243Z,1006.38
2018-07-04T05:35:59.216Z,1006.37
2018-07-04T05:36:59.212Z,1006.35
2018-07-04T05:37:59.222Z,1006.39
2018-07-04T05:38:59.211Z,1006.39
2018-07-04T05:39:59.162Z,1006.38
2018-07-04T05:41:59.236Z,1006.33
2018-07-04T05:42:59.118Z,1006.35
2018-07-04T05:43:59.129Z,1006.36
2018-07-04T05:44:59.117Z,1006.39
2018-07-04T05:45:59.150Z,1006.40
2018-07-04T05:46:59.111Z,1006.37
2018-07-04T05:47:59.078Z,1006.41
2018-07-04T05:48:59.052Z,1006.36
2018-07-04T05:49:59.061Z,1006.37
2018-07-04T05:50:59.028Z,1006.35
2018-07-04T05:51:59.021Z,1006.40
2018-07-04T05:52:58.994Z,1006.40
2018-07-04T05:53:58.993Z,1006.37
2018-07-04T05:54:58.992Z,1006.42
2018-07-04T05:55:58.993Z,1006.35
2018-07-04T05:56:58.952Z,1006.38
2018-07-04T05:57:58.930Z,1006.38
2018-07-04T05:58:58.943Z,1006.41
2018-07-04T05:59:58.935Z,1006.39
2018-07-04T06:00:58.924Z,1006.36
2018-07-04T06:01:58.898Z,1006.36
2018-07-04T06:02:58.886Z,1006.32
2018-07-04T06:03:58.870Z,1006.35
2018-07-04T06:04:58.878Z,1006.36
2018-07-04T06:05:58.874Z,1006.37
2018-07-04T06:06:58.865Z,1006.40
2018-07-04T06:07:58.835Z,1006.40
2018-07-04T06:08:58.833Z,1006.46
2018-07-04T06:09:58.822Z,1006.46
2018-07-04T06:10:58.794Z,1006.49
2018-07-04T06:11:58.816Z,1006.43
2018-07-04T06:12:58.823Z,1006.42
2018-07-04T06:13:58.747Z,1006.36
2018-07-04T06:14:58.769Z,1006.41
2018-07-04T06:15:58.758Z,1006.42
2018-07-04T06:16:58.939Z,1006.40
2018-07-04T06:17:58.843Z,1006.41
2018-07-04T06:18:58.818Z,1006.41
2018-07-04T06:19:58.678Z,1006.40
2018-07-04T06:20:58.686Z,1006.45
2018-07-04T06:21:58.662Z,1006.45
2018-07-04T06:22:58.638Z,1006.42
2018-07-04T06:23:58.616Z,1006.40
2018-07-04T06:24:58.615Z,1006.39
2018-07-04T06:25:58.615Z,1006.40
2018-07-04T06:26:58.611Z,1006.35
2018-07-04T06:27:58.580Z,1006.38
2018-07-04T06:28:58.566Z,1006.39
2018-07-04T06:29:58.564Z,1006.34
2018-07-04T06:30:58.552Z,1006.29
2018-07-04T06:31:58.544Z,1006.31
2018-07-04T06:32:58.536Z,1006.30
2018-07-04T06:33:58.528Z,1006.28
2018-07-04T06:34:58.507Z,1006.30
2018-07-04T06:35:58.530Z,1006.30
2018-07-04T06:36:58.520Z,1006.31
2018-07-04T06:37:58.499Z,1006.34
2018-07-04T06:38:58.488Z,1006.36
2018-07-04T06:39:58.461Z,1006.33
2018-07-04T06:40:58.434Z,1006.36
2018-07-04T06:41:58.483Z,1006.36
2018-07-04T06:42:58.424Z,1006.38
2018-07-04T06:43:58.427Z,1006.38
2018-07-04T06:44:58.405Z,1006.36
2018-07-04T06:45:58.469Z,1006.40
2018-07-04T06:46:58.410Z,1006.36
2018-07-04T06:47:58.365Z,1006.36
2018-07-04T06:48:58.408Z,1006.36
2018-07-04T06:49:58.348Z,1006.32
2018-07-04T06:50:58.366Z,1006.37
2018-07-04T06:51:58.332Z,1006.27
2018-07-04T06:52:58.322Z,1006.27
2018-07-04T06:53:58.318Z,1006.29
2018-07-04T06:54:58.340Z,1006.28
2018-07-04T06:55:58.298Z,1006.28
2018-07-04T06:56:58.315Z,1006.33
2018-07-04T06:57:58.297Z,1006.35
2018-07-04T06:58:58.250Z,1006.31
2018-07-04T06:59:58.258Z,1006.30
2018-07-04T07:00:58.250Z,1006.28
2018-07-04T07:01:58.286Z,1006.29
2018-07-04T07:02:58.221Z,1006.31
2018-07-04T07:03:58.229Z,1006.29
2018-07-04T07:04:58.251Z,1006.30
2018-07-04T07:05:58.223Z,1006.27
2018-07-04T07:06:58.212Z,1006.29
2018-07-04T07:07:58.191Z,1006.28
2018-07-04T07:08:58.179Z,1006.26
2018-07-04T07:09:58.150Z,1006.30
2018-07-04T07:10:58.138Z,1006.30
2018-07-04T07:11:58.120Z,1006.31
2018-07-04T07:12:58.131Z,1006.33
2018-07-04T07:13:58.137Z,1006.33
2018-07-04T07:14:58.110Z,1006.34
2018-07-04T07:15:58.282Z,1006.32
2018-07-04T07:16:58.107Z,1006.39
2018-07-04T07:17:58.093Z,1006.38
2018-07-04T07:18:58.076Z,1006.31
2018-07-04T07:19:58.075Z,1006.33
2018-07-04T07:20:58.045Z,1006.31
2018-07-04T07:21:58.054Z,1006.27
2018-07-04T07:22:58.019Z,1006.29
2018-07-04T07:23:58.013Z,1006.43
2018-07-04T07:24:58.028Z,1006.47
2018-07-04T07:25:58.005Z,1006.50
2018-07-04T07:26:58.004Z,1006.48
2018-07-04T07:27:58.018Z,1006.49
2018-07-04T07:28:57.969Z,1006.32
2018-07-04T07:29:58.006Z,1006.25
2018-07-04T07:30:57.968Z,1006.30
2018-07-04T07:31:57.965Z,1006.28
2018-07-04T07:32:57.989Z,1006.24
2018-07-04T07:33:57.975Z,1006.28
2018-07-04T07:34:57.931Z,1006.33
2018-07-04T07:35:57.950Z,1006.26
2018-07-04T07:36:57.918Z,1006.23
2018-07-04T07:37:57.994Z,1006.25
2018-07-04T07:38:57.866Z,1006.27
2018-07-04T07:39:57.922Z,1006.25
2018-07-04T07:40:57.927Z,1006.27
2018-07-04T07:41:57.933Z,1006.27
2018-07-04T07:42:57.843Z,1006.30
2018-07-04T07:43:57.890Z,1006.24
2018-07-04T07:44:57.824Z,1006.24
2018-07-04T07:45:57.818Z,1006.23
2018-07-04T07:46:57.841Z,1006.25
2018-07-04T07:47:57.806Z,1006.27
2018-07-04T07:48:57.776Z,1006.24
2018-07-04T07:49:57.788Z,1006.26
2018-07-04T07:50:57.777Z,1006.27
2018-07-04T07:51:57.763Z,1006.25
2018-07-04T07:52:57.782Z,1006.27
2018-07-04T07:53:57.794Z,1006.25
2018-07-04T07:54:57.755Z,1006.21
2018-07-04T07:55:57.731Z,1006.18
2018-07-04T07:56:57.785Z,1006.18
2018-07-04T07:57:57.731Z,1006.18
2018-07-04T07:58:57.704Z,1006.16
2018-07-04T07:59:57.717Z,1006.15
2018-07-04T08:00:57.827Z,1006.15
2018-07-04T08:01:57.822Z,1006.12
2018-07-04T08:02:57.778Z,1006.16
2018-07-04T08:03:57.745Z,1006.16
2018-07-04T08:04:57.695Z,1006.11
2018-07-04T08:05:57.856Z,1006.06
2018-07-04T08:06:57.700Z,1006.08
2018-07-04T08:07:57.730Z,1006.05
2018-07-04T08:08:57.666Z,1006.11
2018-07-04T08:09:57.629Z,1006.07
2018-07-04T08:10:57.626Z,1006.08
2018-07-04T08:11:57.640Z,1006.06
2018-07-04T08:12:57.603Z,1006.05
2018-07-04T08:13:57.597Z,1006.08
2018-07-04T08:14:58.565Z,1006.09
2018-07-04T08:15:57.653Z,1006.09
2018-07-04T08:16:57.597Z,1006.10
2018-07-04T08:17:57.578Z,1006.03
2018-07-04T08:18:57.566Z,1006.05
2018-07-04T08:19:57.577Z,1006.01
2018-07-04T08:20:57.548Z,1005.98
2018-07-04T08:21:57.561Z,1006.03
2018-07-04T08:22:57.555Z,1006.01
2018-07-04T08:23:57.522Z,1006.00
2018-07-04T08:24:57.620Z,1005.99
2018-07-04T08:25:57.528Z,1005.98
2018-07-04T08:26:57.509Z,1006.00
2018-07-04T08:27:57.550Z,1005.99
2018-07-04T08:28:57.493Z,1005.97
2018-07-04T08:29:57.512Z,1005.98
2018-07-04T08:30:57.476Z,1005.95
2018-07-04T08:31:57.552Z,1006.01
2018-07-04T08:32:57.537Z,1006.02
2018-07-04T08:33:57.511Z,1006.02
2018-07-04T08:34:57.507Z,1005.99
2018-07-04T08:35:57.471Z,1005.98
2018-07-04T08:36:57.460Z,1005.96
2018-07-04T08:37:57.627Z,1005.95
2018-07-04T08:38:57.600Z,1005.97
2018-07-04T08:39:57.455Z,1005.95
2018-07-04T08:40:57.472Z,1005.93
2018-07-04T08:41:57.475Z,1005.96
2018-07-04T08:42:57.690Z,1005.95
2018-07-04T08:43:57.468Z,1005.95
2018-07-04T08:44:57.412Z,1005.94
2018-07-04T08:45:57.419Z,1005.87
2018-07-04T08:46:57.444Z,1005.91
2018-07-04T08:47:57.421Z,1005.88
2018-07-04T08:48:57.399Z,1005.97
2018-07-04T08:49:57.365Z,1005.93
2018-07-04T08:50:57.411Z,1005.92
2018-07-04T08:51:57.407Z,1005.92
2018-07-04T08:52:57.499Z,1005.92
2018-07-04T08:53:57.372Z,1005.95
2018-07-04T08:54:57.369Z,1005.99
2018-07-04T08:55:57.321Z,1005.95
2018-07-04T08:56:57.327Z,1005.94
2018-07-04T08:57:57.360Z,1005.90
2018-07-04T08:58:57.775Z,1005.94
2018-07-04T08:59:57.357Z,1005.92
2018-07-04T09:00:57.464Z,1005.93
2018-07-04T09:01:57.372Z,1005.92
2018-07-04T09:02:57.283Z,1005.93
2018-07-04T09:03:57.287Z,1005.91
2018-07-04T09:04:57.269Z,1005.89
2018-07-04T09:05:57.278Z,1005.88
2018-07-04T09:06:57.293Z,1005.90
2018-07-04T09:07:57.268Z,1005.90
2018-07-04T09:08:57.237Z,1005.91
2018-07-04T09:09:57.233Z,1005.95
2018-07-04T09:10:57.307Z,1005.96
2018-07-04T09:11:57.242Z,1005.97
2018-07-04T09:12:57.208Z,1005.99
2018-07-04T09:13:57.204Z,1005.96
2018-07-04T09:14:57.204Z,1005.96
2018-07-04T09:15:57.187Z,1005.98
2018-07-04T09:16:57.181Z,1005.97
2018-07-04T09:17:57.183Z,1005.98
2018-07-04T09:18:57.173Z,1005.97
2018-07-04T09:19:57.153Z,1006.00
2018-07-04T09:20:57.201Z,1005.96
2018-07-04T09:21:57.152Z,1005.97
2018-07-04T09:22:57.158Z,1005.99
2018-07-04T09:23:57.171Z,1005.98
2018-07-04T09:24:57.113Z,1005.97
2018-07-04T09:25:57.112Z,1005.96
2018-07-04T09:26:57.134Z,1005.92
2018-07-04T09:27:57.095Z,1005.93
2018-07-04T09:28:57.091Z,1005.92
2018-07-04T09:29:57.081Z,1005.93
2018-07-04T09:30:57.090Z,1005.96
2018-07-04T09:31:57.077Z,1005.91
2018-07-04T09:32:57.076Z,1005.95
2018-07-04T09:33:57.039Z,1005.93
2018-07-04T09:34:57.073Z,1005.93
2018-07-04T09:35:57.030Z,1005.94
2018-07-04T09:36:57.027Z,1005.93
2018-07-04T09:37:57.095Z,1005.94
2018-07-04T09:38:57.069Z,1005.91
2018-07-04T09:39:57.012Z,1005.92
2018-07-04T09:40:57.025Z,1005.93
2018-07-04T09:41:57.010Z,1005.91
2018-07-04T09:42:57.005Z,1005.93
2018-07-04T09:43:57.053Z,1005.93
2018-07-04T09:44:57.018Z,1005.87
2018-07-04T09:45:56.974Z,1005.88
2018-07-04T09:46:56.962Z,1005.89
2018-07-04T09:47:56.970Z,1005.87
2018-07-04T09:48:56.977Z,1005.90
2018-07-04T09:49:56.997Z,1005.87
2018-07-04T09:50:57.056Z,1005.80
2018-07-04T09:51:56.911Z,1005.80
2018-07-04T09:52:56.916Z,1005.86
2018-07-04T09:53:56.937Z,1005.88
2018-07-04T09:54:56.900Z,1005.84
2018-07-04T09:55:56.899Z,1005.84
2018-07-04T09:56:56.907Z,1005.83
2018-07-04T09:57:57.038Z,1005.84
2018-07-04T09:58:56.887Z,1005.83
2018-07-04T09:59:56.898Z,1005.81
2018-07-04T10:00:56.847Z,1005.87
2018-07-04T10:01:56.899Z,1005.82
2018-07-04T10:02:56.841Z,1005.86
2018-07-04T10:03:56.836Z,1005.80
2018-07-04T10:04:56.843Z,1005.83
2018-07-04T10:05:56.834Z,1005.78
2018-07-04T10:06:56.806Z,1005.80
2018-07-04T10:07:56.815Z,1005.82
2018-07-04T10:08:56.831Z,1005.78
2018-07-04T10:09:56.800Z,1005.82
2018-07-04T10:10:56.800Z,1005.78
2018-07-04T10:11:56.802Z,1005.80
2018-07-04T10:12:56.784Z,1005.81
2018-07-04T10:13:56.804Z,1005.80
2018-07-04T10:14:56.809Z,1005.80
2018-07-04T10:15:56.750Z,1005.83
2018-07-04T10:16:56.745Z,1005.82
2018-07-04T10:17:56.787Z,1005.83
2018-07-04T10:18:56.746Z,1005.85
2018-07-04T10:19:56.717Z,1005.82
2018-07-04T10:20:56.699Z,1005.79
2018-07-04T10:21:56.705Z,1005.77
2018-07-04T10:22:56.698Z,1005.78
2018-07-04T10:23:56.688Z,1005.78
2018-07-04T10:24:56.689Z,1005.78
2018-07-04T10:25:56.681Z,1005.74
2018-07-04T10:26:56.676Z,1005.73
2018-07-04T10:27:56.662Z,1005.73
2018-07-04T10:28:56.702Z,1005.68
2018-07-04T10:29:56.646Z,1005.69
2018-07-04T10:30:56.652Z,1005.71
2018-07-04T10:31:56.650Z,1005.71
2018-07-04T10:32:56.634Z,1005.68
2018-07-04T10:33:56.694Z,1005.68
2018-07-04T10:34:56.632Z,1005.68
2018-07-04T10:35:56.644Z,1005.66
2018-07-04T10:36:56.627Z,1005.65
2018-07-04T10:37:56.605Z,1005.67
2018-07-04T10:38:56.592Z,1005.65
2018-07-04T10:39:56.581Z,1005.63
2018-07-04T10:40:56.585Z,1005.64
2018-07-04T10:41:56.569Z,1005.65
2018-07-04T10:42:56.584Z,1005.66
2018-07-04T10:43:56.558Z,1005.66
2018-07-04T10:44:56.561Z,1005.65
2018-07-04T10:45:56.537Z,1005.60
2018-07-04T10:46:56.582Z,1005.60
2018-07-04T10:47:56.540Z,1005.61
2018-07-04T10:48:56.569Z,1005.62
2018-07-04T10:49:56.514Z,1005.60
2018-07-04T10:50:56.664Z,1005.61
2018-07-04T10:51:56.489Z,1005.60
2018-07-04T10:52:56.490Z,1005.59
2018-07-04T10:53:56.605Z,1005.55
2018-07-04T10:54:56.503Z,1005.55
2018-07-04T10:55:56.491Z,1005.60
2018-07-04T10:56:56.498Z,1005.55
2018-07-04T10:57:56.474Z,1005.57
2018-07-04T10:58:56.452Z,1005.58
2018-07-04T10:59:56.457Z,1005.51
2018-07-04T11:00:56.432Z,1005.52
2018-07-04T11:01:56.493Z,1005.57
2018-07-04T11:02:56.506Z,1005.55
2018-07-04T11:03:56.413Z,1005.53
2018-07-04T11:04:56.458Z,1005.53
2018-07-04T11:05:56.438Z,1005.51
2018-07-04T11:06:56.408Z,1005.47
2018-07-04T11:07:56.389Z,1005.42
2018-07-04T11:08:56.444Z,1005.43
2018-07-04T11:09:56.430Z,1005.44
2018-07-04T11:10:56.379Z,1005.38
2018-07-04T11:11:56.399Z,1005.39
2018-07-04T11:12:56.370Z,1005.40
2018-07-04T11:13:56.400Z,1005.35
2018-07-04T11:14:56.340Z,1005.36
2018-07-04T11:15:56.340Z,1005.33
2018-07-04T11:16:56.413Z,1005.33
2018-07-04T11:17:56.323Z,1005.30
2018-07-04T11:18:56.327Z,1005.33
2018-07-04T11:19:56.346Z,1005.29
2018-07-04T11:20:56.328Z,1005.29
2018-07-04T11:21:56.302Z,1005.32
2018-07-04T11:22:56.289Z,1005.27
2018-07-04T11:23:56.290Z,1005.28
2018-07-04T11:24:56.271Z,1005.25
2018-07-04T11:25:56.295Z,1005.23
2018-07-04T11:26:56.275Z,1005.23
2018-07-04T11:27:56.277Z,1005.21
2018-07-04T11:28:56.251Z,1005.21
2018-07-04T11:29:56.252Z,1005.18
2018-07-04T11:30:56.269Z,1005.19
2018-07-04T11:31:56.248Z,1005.19
2018-07-04T11:32:56.259Z,1005.18
2018-07-04T11:33:56.258Z,1005.18
2018-07-04T11:34:56.226Z,1005.18
2018-07-04T11:35:56.240Z,1005.16
2018-07-04T11:36:56.210Z,1005.13
2018-07-04T11:37:56.200Z,1005.15
2018-07-04T11:38:56.230Z,1005.17
2018-07-04T11:39:56.189Z,1005.13
2018-07-04T11:40:56.221Z,1005.13
2018-07-04T11:41:56.176Z,1005.14
2018-07-04T11:42:56.167Z,1005.15
2018-07-04T11:43:56.216Z,1005.12
2018-07-04T11:44:56.248Z,1005.13
2018-07-04T11:45:56.254Z,1005.20
2018-07-04T11:46:56.147Z,1005.10
2018-07-04T11:47:56.217Z,1005.10
2018-07-04T11:48:56.146Z,1005.06
2018-07-04T11:49:56.143Z,1005.12
2018-07-04T11:50:56.136Z,1005.06
2018-07-04T11:51:56.136Z,1005.07
2018-07-04T11:52:56.386Z,1005.05
2018-07-04T11:53:56.169Z,1005.05
2018-07-04T11:54:56.100Z,1005.04
2018-07-04T11:55:56.102Z,1005.04
2018-07-04T11:56:56.104Z,1005.00
2018-07-04T11:57:56.083Z,1005.01
2018-07-04T11:58:56.073Z,1004.98
2018-07-04T11:59:56.058Z,1004.96
2018-07-04T12:00:56.074Z,1004.96
2018-07-04T12:01:56.079Z,1004.94
2018-07-04T12:02:56.064Z,1004.92
2018-07-04T12:03:56.045Z,1004.92
2018-07-04T12:04:56.035Z,1004.91
2018-07-04T12:05:56.030Z,1004.95